Time,TemperatureF,DewpointF,PressureIn,WindDirection,WindDirectionDegrees,WindSpeedMPH,WindSpeedGustMPH,Humidity,HourlyPrecipIn,Conditions,Clouds,dailyrainin,SolarRadiationWatts/m^2,SoftwareType,DateUTC
2013-01-27 00:01:00,35.0,32.0,-100.00,WNW,301,5.0,7.0,87,0.00,,,0.00,0.000000,,2013-01-27 07:01:00,
2013-01-27 00:13:00,35.0,32.0,-100.00,WNW,301,5.0,7.0,87,0.00,,,0.00,0.000000,,2013-01-27 07:13:00,
2013-01-27 00:21:00,35.0,32.0,-100.00,WNW,301,5.0,7.0,87,0.00,,,0.00,0.000000,,2013-01-27 07:21:00,
2013-01-27 00:30:00,34.0,32.0,-100.00,WNW,288,3.0,7.0,93,0.00,,,0.00,0.000000,,2013-01-27 07:30:00,
2013-01-27 00:52:00,34.0,32.0,-100.00,WNW,288,3.0,7.0,93,0.00,,,0.00,0.000000,,2013-01-27 07:52:00,
2013-01-27 01:01:00,34.0,32.0,-100.00,WNW,288,3.0,7.0,93,0.00,,,0.00,0.000000,,2013-01-27 08:01:00,
2013-01-27 01:11:00,34.0,32.0,-100.00,WNW,288,3.0,7.0,93,0.00,,,0.00,0.000000,,2013-01-27 08:11:00,
2013-01-27 01:21:00,34.0,32.0,-100.00,WNW,288,3.0,7.0,93,0.00,,,0.00,0.000000,,2013-01-27 08:21:00,
2013-01-27 01:30:00,35.0,29.0,-100.00,West,271,4.0,7.0,79,0.00,,,0.00,0.000000,,2013-01-27 08:30:00,
2013-01-27 01:52:00,35.0,29.0,-100.00,West,271,4.0,7.0,79,0.00,,,0.00,0.000000,,2013-01-27 08:52:00,
2013-01-27 02:02:00,35.0,29.0,-100.00,West,271,4.0,7.0,79,0.00,,,0.00,0.000000,,2013-01-27 09:02:00,
2013-01-27 02:11:00,35.0,29.0,-100.00,West,271,4.0,7.0,79,0.00,,,0.00,0.000000,,2013-01-27 09:11:00,
2013-01-27 02:21:00,35.0,29.0,-100.00,West,271,4.0,7.0,79,0.00,,,0.00,0.000000,,2013-01-27 09:21:00,
2013-01-27 02:30:00,34.0,26.0,-100.00,SW,233,3.0,6.0,72,0.00,,,0.00,0.000000,,2013-01-27 09:30:00,
2013-01-27 02:52:00,34.0,26.0,-100.00,SW,233,3.0,6.0,72,0.00,,,0.00,0.000000,,2013-01-27 09:52:00,
2013-01-27 03:01:00,34.0,26.0,-100.00,SW,233,3.0,6.0,72,0.00,,,0.00,0.000000,,2013-01-27 10:01:00,
2013-01-27 03:11:00,34.0,26.0,-100.00,SW,233,3.0,6.0,72,0.00,,,0.00,0.000000,,2013-01-27 10:11:00,
2013-01-27 03:21:00,34.0,26.0,-100.00,SW,233,3.0,6.0,72,0.00,,,0.00,0.000000,,2013-01-27 10:21:00,
2013-01-27 03:30:00,34.0,27.0,-100.00,NW,311,3.0,6.0,75,0.00,,,0.00,0.000000,,2013-01-27 10:30:00,
2013-01-27 03:52:00,34.0,27.0,-100.00,NW,311,3.0,6.0,75,0.00,,,0.00,0.000000,,2013-01-27 10:52:00,
2013-01-27 04:01:00,34.0,27.0,-100.00,NW,311,3.0,6.0,75,0.00,,,0.00,0.000000,,2013-01-27 11:01:00,
2013-01-27 04:11:00,34.0,27.0,-100.00,NW,311,3.0,6.0,75,0.00,,,0.00,0.000000,,2013-01-27 11:11:00,
2013-01-27 04:21:00,34.0,27.0,-100.00,NW,311,3.0,6.0,75,0.00,,,0.00,0.000000,,2013-01-27 11:21:00,
2013-01-27 04:30:00,33.0,28.0,-100.00,WNW,297,3.0,7.0,82,0.00,,,0.00,0.000000,,2013-01-27 11:30:00,
2013-01-27 04:52:00,33.0,28.0,-100.00,WNW,297,3.0,7.0,82,0.00,,,0.00,0.000000,,2013-01-27 11:52:00,
2013-01-27 05:02:00,33.0,28.0,-100.00,WNW,297,3.0,7.0,82,0.00,,,0.00,0.000000,,2013-01-27 12:02:00,
2013-01-27 05:11:00,33.0,28.0,-100.00,WNW,297,3.0,7.0,82,0.00,,,0.00,0.000000,,2013-01-27 12:11:00,
2013-01-27 05:21:00,33.0,28.0,-100.00,WNW,297,3.0,7.0,82,0.00,,,0.00,0.000000,,2013-01-27 12:21:00,
2013-01-27 05:30:00,31.0,22.0,-100.00,NW,310,4.0,7.0,68,0.00,,,0.00,0.000000,,2013-01-27 12:30:00,
2013-01-27 05:52:00,31.0,22.0,-100.00,NW,310,4.0,7.0,68,0.00,,,0.00,0.000000,,2013-01-27 12:52:00,
2013-01-27 06:02:00,31.0,22.0,-100.00,NW,310,4.0,7.0,68,0.00,,,0.00,0.000000,,2013-01-27 13:02:00,
2013-01-27 06:11:00,31.0,22.0,-100.00,NW,310,4.0,7.0,68,0.00,,,0.00,0.000000,,2013-01-27 13:11:00,
2013-01-27 06:22:00,31.0,22.0,-100.00,NW,310,4.0,7.0,68,0.00,,,0.00,0.000000,,2013-01-27 13:22:00,
2013-01-27 06:30:00,33.0,22.0,-100.00,SW,231,5.0,9.0,64,0.00,,,0.00,0.000000,,2013-01-27 13:30:00,
2013-01-27 06:52:00,33.0,22.0,-100.00,SW,231,5.0,9.0,64,0.00,,,0.00,0.000000,,2013-01-27 13:52:00,
2013-01-27 07:01:00,33.0,22.0,-100.00,SW,231,5.0,9.0,64,0.00,,,0.00,0.000000,,2013-01-27 14:01:00,
2013-01-27 07:11:00,33.0,22.0,-100.00,SW,231,5.0,9.0,64,0.00,,,0.00,0.000000,,2013-01-27 14:11:00,
2013-01-27 07:21:00,33.0,22.0,-100.00,SW,231,5.0,9.0,64,0.00,,,0.00,0.000000,,2013-01-27 14:21:00,
2013-01-27 07:30:00,33.0,19.0,-100.00,SW,223,5.0,11.0,57,0.00,,,0.00,0.000000,,2013-01-27 14:30:00,
2013-01-27 08:11:00,33.0,19.0,-100.00,SW,223,5.0,11.0,57,0.00,,,0.00,0.000000,,2013-01-27 15:11:00,
2013-01-27 08:21:00,33.0,19.0,-100.00,SW,223,5.0,11.0,57,0.00,,,0.00,0.000000,,2013-01-27 15:21:00,
2013-01-27 08:30:00,31.0,18.0,-100.00,WNW,296,2.0,9.0,59,0.00,,,0.00,5.000000,,2013-01-27 15:30:00,
2013-01-27 08:53:00,31.0,18.0,-100.00,WNW,296,2.0,9.0,59,0.00,,,0.00,5.000000,,2013-01-27 15:53:00,
2013-01-27 09:02:00,31.0,18.0,-100.00,WNW,296,2.0,9.0,59,0.00,,,0.00,5.000000,,2013-01-27 16:02:00,
2013-01-27 09:11:00,31.0,18.0,-100.00,WNW,296,2.0,9.0,59,0.00,,,0.00,5.000000,,2013-01-27 16:11:00,
2013-01-27 09:21:00,31.0,18.0,-100.00,WNW,296,2.0,9.0,59,0.00,,,0.00,5.000000,,2013-01-27 16:21:00,
2013-01-27 09:30:00,32.0,19.0,-100.00,SSW,208,4.0,7.0,59,0.00,,,0.00,56.000000,,2013-01-27 16:30:00,
2013-01-27 09:53:00,32.0,19.0,-100.00,SSW,208,4.0,7.0,59,0.00,,,0.00,56.000000,,2013-01-27 16:53:00,
2013-01-27 10:01:00,32.0,19.0,-100.00,SSW,208,4.0,7.0,59,0.00,,,0.00,56.000000,,2013-01-27 17:01:00,
2013-01-27 10:12:00,32.0,19.0,-100.00,SSW,208,4.0,7.0,59,0.00,,,0.00,56.000000,,2013-01-27 17:12:00,
2013-01-27 10:21:00,32.0,19.0,-100.00,SSW,208,4.0,7.0,59,0.00,,,0.00,56.000000,,2013-01-27 17:21:00,
2013-01-27 10:30:00,35.0,19.0,-100.00,SW,229,6.0,10.0,51,0.00,,,0.00,189.000000,,2013-01-27 17:30:00,
2013-01-27 10:52:00,35.0,19.0,-100.00,SW,229,6.0,10.0,51,0.00,,,0.00,189.000000,,2013-01-27 17:52:00,
2013-01-27 11:02:00,35.0,19.0,-100.00,SW,229,6.0,10.0,51,0.00,,,0.00,189.000000,,2013-01-27 18:02:00,
2013-01-27 11:11:00,35.0,19.0,-100.00,SW,229,6.0,10.0,51,0.00,,,0.00,189.000000,,2013-01-27 18:11:00,
2013-01-27 11:22:00,35.0,19.0,-100.00,SW,229,6.0,10.0,51,0.00,,,0.00,189.000000,,2013-01-27 18:22:00,
2013-01-27 11:30:00,37.0,18.0,-100.00,WSW,239,7.0,14.0,45,0.00,,,0.00,401.000000,,2013-01-27 18:30:00,
2013-01-27 11:52:00,37.0,18.0,-100.00,WSW,239,7.0,14.0,45,0.00,,,0.00,401.000000,,2013-01-27 18:52:00,
2013-01-27 12:01:00,37.0,18.0,-100.00,WSW,239,7.0,14.0,45,0.00,,,0.00,401.000000,,2013-01-27 19:01:00,
2013-01-27 12:11:00,37.0,18.0,-100.00,WSW,239,7.0,14.0,45,0.00,,,0.00,401.000000,,2013-01-27 19:11:00,
2013-01-27 12:21:00,37.0,18.0,-100.00,WSW,239,7.0,14.0,45,0.00,,,0.00,401.000000,,2013-01-27 19:21:00,
2013-01-27 12:30:00,39.0,17.0,-100.00,West,259,12.0,16.0,41,0.00,,,0.00,569.000000,,2013-01-27 19:30:00,
2013-01-27 12:52:00,39.0,17.0,-100.00,West,259,12.0,16.0,41,0.00,,,0.00,569.000000,,2013-01-27 19:52:00,
2013-01-27 13:02:00,39.0,17.0,-100.00,West,259,12.0,16.0,41,0.00,,,0.00,569.000000,,2013-01-27 20:02:00,
2013-01-27 13:11:00,39.0,17.0,-100.00,West,259,12.0,16.0,41,0.00,,,0.00,569.000000,,2013-01-27 20:11:00,
2013-01-27 13:22:00,39.0,17.0,-100.00,West,259,12.0,16.0,41,0.00,,,0.00,569.000000,,2013-01-27 20:22:00,
2013-01-27 13:30:00,39.0,14.0,-100.00,West,269,11.0,22.0,36,0.00,,,0.00,424.000000,,2013-01-27 20:30:00,
2013-01-27 13:52:00,39.0,14.0,-100.00,West,269,11.0,22.0,36,0.00,,,0.00,424.000000,,2013-01-27 20:52:00,
2013-01-27 14:02:00,39.0,14.0,-100.00,West,269,11.0,22.0,36,0.00,,,0.00,424.000000,,2013-01-27 21:02:00,
2013-01-27 14:12:00,39.0,14.0,-100.00,West,269,11.0,22.0,36,0.00,,,0.00,424.000000,,2013-01-27 21:12:00,
2013-01-27 14:22:00,39.0,14.0,-100.00,West,269,11.0,22.0,36,0.00,,,0.00,424.000000,,2013-01-27 21:22:00,
2013-01-27 14:30:00,39.0,14.0,-100.00,WSW,249,11.0,16.0,35,0.00,,,0.00,362.000000,,2013-01-27 21:30:00,
2013-01-27 14:52:00,39.0,14.0,-100.00,WSW,249,11.0,16.0,35,0.00,,,0.00,362.000000,,2013-01-27 21:52:00,
2013-01-27 15:01:00,39.0,14.0,-100.00,WSW,249,11.0,16.0,35,0.00,,,0.00,362.000000,,2013-01-27 22:01:00,
2013-01-27 15:11:00,39.0,14.0,-100.00,WSW,249,11.0,16.0,35,0.00,,,0.00,362.000000,,2013-01-27 22:11:00,
2013-01-27 15:21:00,39.0,14.0,-100.00,WSW,249,11.0,16.0,35,0.00,,,0.00,362.000000,,2013-01-27 22:21:00,
2013-01-27 15:30:00,38.0,14.0,-100.00,WSW,251,13.0,19.0,37,0.00,,,0.00,247.000000,,2013-01-27 22:30:00,
2013-01-27 15:52:00,38.0,14.0,-100.00,WSW,251,13.0,19.0,37,0.00,,,0.00,247.000000,,2013-01-27 22:52:00,
2013-01-27 16:02:00,38.0,14.0,-100.00,WSW,251,13.0,19.0,37,0.00,,,0.00,247.000000,,2013-01-27 23:02:00,
2013-01-27 16:11:00,38.0,14.0,-100.00,WSW,251,13.0,19.0,37,0.00,,,0.00,247.000000,,2013-01-27 23:11:00,
2013-01-27 16:21:00,38.0,14.0,-100.00,WSW,251,13.0,19.0,37,0.00,,,0.00,247.000000,,2013-01-27 23:21:00,
2013-01-27 16:30:00,38.0,14.0,-100.00,WSW,248,11.0,18.0,37,0.00,,,0.00,215.000000,,2013-01-27 23:30:00,
2013-01-27 16:53:00,38.0,14.0,-100.00,WSW,248,11.0,18.0,37,0.00,,,0.00,215.000000,,2013-01-27 23:53:00,
2013-01-27 17:01:00,38.0,14.0,-100.00,WSW,248,11.0,18.0,37,0.00,,,0.00,215.000000,,2013-01-28 00:01:00,
2013-01-27 17:11:00,38.0,14.0,-100.00,WSW,248,11.0,18.0,37,0.00,,,0.00,215.000000,,2013-01-28 00:11:00,
2013-01-27 17:21:00,38.0,14.0,-100.00,WSW,248,11.0,18.0,37,0.00,,,0.00,215.000000,,2013-01-28 00:21:00,
2013-01-27 17:30:00,35.0,13.0,-100.00,WSW,246,7.0,17.0,40,0.00,,,0.00,73.000000,,2013-01-28 00:30:00,
2013-01-27 17:52:00,35.0,13.0,-100.00,WSW,246,7.0,17.0,40,0.00,,,0.00,73.000000,,2013-01-28 00:52:00,
2013-01-27 18:01:00,35.0,13.0,-100.00,WSW,246,7.0,17.0,40,0.00,,,0.00,73.000000,,2013-01-28 01:01:00,
2013-01-27 18:11:00,35.0,13.0,-100.00,WSW,246,7.0,17.0,40,0.00,,,0.00,73.000000,,2013-01-28 01:11:00,
2013-01-27 18:21:00,35.0,13.0,-100.00,WSW,246,7.0,17.0,40,0.00,,,0.00,73.000000,,2013-01-28 01:21:00,
2013-01-27 18:30:00,33.0,14.0,-100.00,West,281,5.0,10.0,46,0.00,,,0.00,1.000000,,2013-01-28 01:30:00,
2013-01-27 18:52:00,33.0,14.0,-100.00,West,281,5.0,10.0,46,0.00,,,0.00,1.000000,,2013-01-28 01:52:00,
2013-01-27 19:02:00,33.0,14.0,-100.00,West,281,5.0,10.0,46,0.00,,,0.00,1.000000,,2013-01-28 02:02:00,
2013-01-27 19:11:00,33.0,14.0,-100.00,West,281,5.0,10.0,46,0.00,,,0.00,1.000000,,2013-01-28 02:11:00,
2013-01-27 19:21:00,33.0,14.0,-100.00,West,281,5.0,10.0,46,0.00,,,0.00,1.000000,,2013-01-28 02:21:00,
2013-01-27 19:30:00,28.0,14.0,-100.00,WNW,302,3.0,7.0,55,0.00,,,0.00,0.000000,,2013-01-28 02:30:00,
2013-01-27 19:52:00,28.0,14.0,-100.00,WNW,302,3.0,7.0,55,0.00,,,0.00,0.000000,,2013-01-28 02:52:00,
2013-01-27 20:02:00,28.0,14.0,-100.00,WNW,302,3.0,7.0,55,0.00,,,0.00,0.000000,,2013-01-28 03:02:00,
2013-01-27 20:11:00,28.0,14.0,-100.00,WNW,302,3.0,7.0,55,0.00,,,0.00,0.000000,,2013-01-28 03:11:00,
2013-01-27 20:21:00,28.0,14.0,-100.00,WNW,302,3.0,7.0,55,0.00,,,0.00,0.000000,,2013-01-28 03:21:00,
2013-01-27 20:30:00,29.0,15.0,-100.00,WNW,294,4.0,6.0,56,0.00,,,0.00,0.000000,,2013-01-28 03:30:00,
2013-01-27 20:53:00,29.0,15.0,-100.00,WNW,294,4.0,6.0,56,0.00,,,0.00,0.000000,,2013-01-28 03:53:00,
2013-01-27 21:01:00,29.0,15.0,-100.00,WNW,294,4.0,6.0,56,0.00,,,0.00,0.000000,,2013-01-28 04:01:00,
2013-01-27 21:11:00,29.0,15.0,-100.00,WNW,294,4.0,6.0,56,0.00,,,0.00,0.000000,,2013-01-28 04:11:00,
2013-01-27 21:21:00,29.0,15.0,-100.00,WNW,294,4.0,6.0,56,0.00,,,0.00,0.000000,,2013-01-28 04:21:00,
2013-01-27 21:30:00,28.0,15.0,-100.00,WNW,289,5.0,7.0,57,0.00,,,-99.99,0.000000,,2013-01-28 04:30:00,
2013-01-27 21:52:00,28.0,15.0,-100.00,WNW,289,5.0,7.0,57,0.00,,,-99.99,0.000000,,2013-01-28 04:52:00,
2013-01-27 22:03:00,28.0,15.0,-100.00,WNW,289,5.0,7.0,57,0.00,,,-99.99,0.000000,,2013-01-28 05:03:00,
2013-01-27 22:11:00,28.0,15.0,-100.00,WNW,289,5.0,7.0,57,0.00,,,-99.99,0.000000,,2013-01-28 05:11:00,
2013-01-27 22:21:00,28.0,15.0,-100.00,WNW,289,5.0,7.0,57,0.00,,,-99.99,0.000000,,2013-01-28 05:21:00,
2013-01-27 22:30:00,28.0,16.0,-100.00,WNW,287,6.0,9.0,59,0.00,,,0.00,0.000000,,2013-01-28 05:30:00,
2013-01-27 22:52:00,28.0,16.0,-100.00,WNW,287,6.0,9.0,59,0.00,,,0.00,0.000000,,2013-01-28 05:52:00,
2013-01-27 23:02:00,28.0,16.0,-100.00,WNW,287,6.0,9.0,59,0.00,,,0.00,0.000000,,2013-01-28 06:02:00,
2013-01-27 23:11:00,28.0,16.0,-100.00,WNW,287,6.0,9.0,59,0.00,,,0.00,0.000000,,2013-01-28 06:11:00,
2013-01-27 23:21:00,28.0,16.0,-100.00,WNW,287,6.0,9.0,59,0.00,,,0.00,0.000000,,2013-01-28 06:21:00,
2013-01-27 23:30:00,28.0,15.0,-100.00,WNW,293,4.0,9.0,57,0.00,,,0.00,0.000000,,2013-01-28 06:30:00,
2013-01-27 23:52:00,28.0,15.0,-100.00,WNW,293,4.0,9.0,57,0.00,,,0.00,0.000000,,2013-01-28 06:52:00,